Time;durP1;ratioP1;P1;durP2;ratioP2;P2;SDS_P1;SDS_P2;PMS_P1;PMS_P2;Temp;Humidity;BMP_temperature;BMP_pressure;BME280_temperature;BME280_humidity;BME280_pressure;Samples;Min_cycle;Max_cycle;Signal;HPM_P1;HPM_P2
2022/03/06 00:02:18;;;;;;;;;;;-2.00;99.90;;;;;;5080985;27;19924;-82
2022/03/06 00:04:44;;;;;;;;;;;-1.90;99.90;;;;;;5083409;28;19920;-82
2022/03/06 00:07:09;;;;;;;;;;;-1.90;99.90;;;;;;5086199;28;19924;-82
2022/03/06 00:09:35;;;;;;;;;;;-2.00;99.90;;;;;;5071780;28;19931;-82
2022/03/06 00:12:01;;;;;;;;;;;-1.80;99.90;;;;;;5096534;27;19974;-83
2022/03/06 00:14:26;;;;;;;;;;;-2.00;99.90;;;;;;5069258;28;19920;-83
2022/03/06 00:16:53;;;;;;;;;;;-2.10;99.90;;;;;;5065977;27;19928;-83
2022/03/06 00:19:19;;;;;;;;;;;-2.10;99.90;;;;;;5099430;28;20443;-83
2022/03/06 00:21:59;;;;;;;;;;;-2.00;99.90;;;;;;5099386;28;20024;-83
2022/03/06 00:24:25;;;;;;;;;;;-2.10;99.90;;;;;;5102863;27;19923;-83
2022/03/06 00:26:50;;;;;;;;;;;-2.10;99.90;;;;;;5074137;27;19930;-83
2022/03/06 00:29:16;;;;;;;;;;;-2.10;99.90;;;;;;5103921;27;20316;-83
2022/03/06 00:31:42;;;;;;;;;;;-2.20;99.90;;;;;;5069202;28;19923;-83
2022/03/06 00:34:08;;;;;;;;;;;-2.10;99.90;;;;;;5073264;27;19924;-83
2022/03/06 00:36:33;;;;;;;;;;;-2.20;99.90;;;;;;5103285;27;19924;-82
2022/03/06 00:38:59;;;;;;;;;;;-2.10;99.90;;;;;;5127959;27;19931;-82
2022/03/06 00:41:24;;;;;;;;;;;-2.00;99.90;;;;;;5079677;28;19927;-82
2022/03/06 00:43:50;;;;;;;;;;;-2.00;99.90;;;;;;5108980;27;19919;-83
2022/03/06 00:46:15;;;;;;;;;;;-2.10;99.90;;;;;;5075809;27;19919;-82
2022/03/06 00:48:41;;;;;;;;;;;-2.10;99.90;;;;;;5073156;28;20395;-83
2022/03/06 00:51:06;;;;;;;;;;;-2.10;99.90;;;;;;5090725;28;20293;-83
2022/03/06 00:53:32;;;;;;;;;;;-2.10;99.90;;;;;;5066933;28;19949;-82
2022/03/06 00:55:57;;;;;;;;;;;-2.10;99.90;;;;;;5105709;27;20426;-83
2022/03/06 00:58:23;;;;;;;;;;;-2.20;99.90;;;;;;5105007;28;20018;-82
2022/03/06 01:00:49;;;;;;;;;;;-2.20;99.90;;;;;;5098544;28;20433;-83
2022/03/06 01:03:16;;;;;;;;;;;-2.20;99.90;;;;;;5075542;28;19974;-82
2022/03/06 01:05:42;;;;;;;;;;;-2.10;99.90;;;;;;5110770;28;20281;-82
2022/03/06 01:08:07;;;;;;;;;;;-2.00;99.90;;;;;;5069109;28;19920;-82
2022/03/06 01:10:34;;;;;;;;;;;-2.00;99.90;;;;;;5110813;27;19951;-82
2022/03/06 01:13:00;;;;;;;;;;;-1.80;99.90;;;;;;5072090;28;19920;-82
2022/03/06 01:15:26;;;;;;;;;;;-1.70;99.90;;;;;;5081313;28;19920;-82
2022/03/06 01:17:52;;;;;;;;;;;-1.70;99.90;;;;;;5097179;27;19923;-83
2022/03/06 01:20:19;;;;;;;;;;;-1.60;99.90;;;;;;5100220;27;19927;-83
2022/03/06 01:22:45;;;;;;;;;;;-1.70;99.90;;;;;;5117563;27;19927;-83
2022/03/06 01:25:10;;;;;;;;;;;-1.60;99.90;;;;;;5102538;28;20365;-83
2022/03/06 01:27:36;;;;;;;;;;;-1.60;99.90;;;;;;5077440;28;19928;-82
2022/03/06 01:30:03;;;;;;;;;;;-1.50;99.90;;;;;;5061153;28;20002;-82
2022/03/06 01:32:28;;;;;;;;;;;-1.50;99.90;;;;;;5061001;28;19920;-82
2022/03/06 01:34:54;;;;;;;;;;;-1.40;99.90;;;;;;5077913;28;20007;-83
2022/03/06 01:37:19;;;;;;;;;;;-1.40;99.90;;;;;;5097631;28;19920;-82
2022/03/06 01:39:45;;;;;;;;;;;-0.20;99.90;;;;;;5080965;28;19920;-83
2022/03/06 01:42:10;;;;;;;;;;;-1.50;99.90;;;;;;5081019;28;20292;-83
2022/03/06 01:44:36;;;;;;;;;;;-1.30;99.90;;;;;;5097634;28;19920;-82
2022/03/06 01:47:03;;;;;;;;;;;-1.50;99.90;;;;;;5080569;28;19928;-82
2022/03/06 01:49:29;;;;;;;;;;;-1.40;99.90;;;;;;5094351;28;19975;-82
2022/03/06 01:51:54;;;;;;;;;;;-1.50;99.90;;;;;;5060574;28;19963;-82
2022/03/06 01:54:20;;;;;;;;;;;-1.50;99.90;;;;;;5078375;28;19927;-82
2022/03/06 01:56:45;;;;;;;;;;;-1.50;99.90;;;;;;5080125;28;19920;-82
2022/03/06 01:59:11;;;;;;;;;;;-1.60;99.90;;;;;;5080701;28;19926;-82
2022/03/06 02:01:36;;;;;;;;;;;-1.60;99.90;;;;;;5080708;28;19927;-82
2022/03/06 02:04:02;;;;;;;;;;;-1.50;99.90;;;;;;5071728;28;20538;-82
2022/03/06 02:06:28;;;;;;;;;;;-1.50;99.90;;;;;;5080981;27;20023;-82
2022/03/06 02:08:54;;;;;;;;;;;-1.60;99.90;;;;;;5065765;27;20292;-82
2022/03/06 02:11:24;;;;;;;;;;;-1.60;99.90;;;;;;5122057;27;19919;-82
2022/03/06 02:13:50;;;;;;;;;;;-1.50;99.90;;;;;;5096983;28;19923;-82
2022/03/06 02:16:15;;;;;;;;;;;-1.50;99.90;;;;;;5082202;27;20372;-82
2022/03/06 02:18:41;;;;;;;;;;;-1.40;99.90;;;;;;5081281;28;19965;-82
2022/03/06 02:21:07;;;;;;;;;;;-1.40;99.90;;;;;;5098381;28;19927;-82
2022/03/06 02:23:33;;;;;;;;;;;-1.30;99.90;;;;;;5105364;28;20014;-82
2022/03/06 02:25:58;;;;;;;;;;;-1.30;99.90;;;;;;5079032;28;19971;-82
2022/03/06 02:28:24;;;;;;;;;;;-1.30;99.90;;;;;;5098192;28;20010;-82
2022/03/06 02:30:50;;;;;;;;;;;-1.20;99.90;;;;;;5079936;27;20011;-82
2022/03/06 02:33:15;;;;;;;;;;;-1.30;99.90;;;;;;5119515;27;19920;-82
2022/03/06 02:35:41;;;;;;;;;;;-1.30;99.90;;;;;;5076804;28;19920;-82
2022/03/06 02:38:07;;;;;;;;;;;-1.20;99.90;;;;;;5098386;27;19920;-82
2022/03/06 02:40:42;;;;;;;;;;;-1.20;99.90;;;;;;5097879;27;19926;-82
2022/03/06 02:43:09;;;;;;;;;;;-1.20;99.90;;;;;;5096672;28;19947;-83
2022/03/06 02:45:35;;;;;;;;;;;-1.30;99.90;;;;;;5108949;27;19920;-83
2022/03/06 02:48:01;;;;;;;;;;;-1.20;99.90;;;;;;5091109;27;20280;-83
2022/03/06 02:50:28;;;;;;;;;;;-1.20;99.90;;;;;;5105640;28;19923;-83
2022/03/06 02:52:54;;;;;;;;;;;-1.30;99.90;;;;;;5074125;27;19920;-82
2022/03/06 02:55:20;;;;;;;;;;;-1.20;99.90;;;;;;5068475;28;19966;-82
2022/03/06 02:57:46;;;;;;;;;;;-1.30;99.90;;;;;;5072978;28;19920;-83
2022/03/06 03:00:13;;;;;;;;;;;-0.20;99.90;;;;;;5075710;28;19920;-83
2022/03/06 03:02:39;;;;;;;;;;;-1.30;99.90;;;;;;5075542;28;19919;-83
2022/03/06 03:05:05;;;;;;;;;;;-1.40;99.90;;;;;;5080783;27;20298;-83
2022/03/06 03:07:49;;;;;;;;;;;-1.50;99.90;;;;;;5083213;27;19955;-82
2022/03/06 03:10:15;;;;;;;;;;;-1.50;99.90;;;;;;5087429;28;19931;-82
2022/03/06 03:12:41;;;;;;;;;;;-1.60;99.90;;;;;;5079502;28;20373;-82
2022/03/06 03:15:08;;;;;;;;;;;-1.70;99.90;;;;;;5079084;28;19920;-82
2022/03/06 03:17:33;;;;;;;;;;;-1.70;99.90;;;;;;5078749;28;19920;-82
2022/03/06 03:19:59;;;;;;;;;;;-1.80;99.90;;;;;;5095731;28;19969;-82
2022/03/06 03:22:25;;;;;;;;;;;-1.90;99.90;;;;;;5079119;28;19967;-82
2022/03/06 03:24:50;;;;;;;;;;;-1.90;99.90;;;;;;5079151;28;19924;-82
2022/03/06 03:27:15;;;;;;;;;;;-2.00;99.90;;;;;;5094829;28;19920;-82
2022/03/06 03:29:41;;;;;;;;;;;-2.00;99.90;;;;;;5078809;28;20053;-82
2022/03/06 03:32:07;;;;;;;;;;;-2.00;99.90;;;;;;5079025;28;19919;-82
2022/03/06 03:34:32;;;;;;;;;;;-2.00;99.90;;;;;;5095699;28;19955;-82
2022/03/06 03:36:58;;;;;;;;;;;-2.10;99.90;;;;;;5095679;28;19920;-82
2022/03/06 03:39:23;;;;;;;;;;;-2.10;99.90;;;;;;5079330;28;19920;-82
2022/03/06 03:41:48;;;;;;;;;;;-1.90;99.90;;;;;;5079244;28;19926;-82
2022/03/06 03:44:14;;;;;;;;;;;-1.90;99.90;;;;;;5078714;28;19924;-83
2022/03/06 03:46:40;;;;;;;;;;;-2.00;99.90;;;;;;5078590;28;19926;-82
2022/03/06 03:49:05;;;;;;;;;;;-2.10;99.90;;;;;;5078710;28;20372;-82
2022/03/06 03:51:31;;;;;;;;;;;-2.00;99.90;;;;;;5095626;28;19920;-82
2022/03/06 03:53:56;;;;;;;;;;;-2.20;99.90;;;;;;5079116;28;19959;-82
2022/03/06 03:56:22;;;;;;;;;;;-2.20;99.90;;;;;;5078287;28;19927;-83
2022/03/06 03:58:48;;;;;;;;;;;-2.20;99.90;;;;;;5078759;28;20403;-82
2022/03/06 04:01:13;;;;;;;;;;;-2.20;99.90;;;;;;5095598;28;19967;-82
2022/03/06 04:03:39;;;;;;;;;;;-2.30;99.90;;;;;;5079014;28;19962;-82
2022/03/06 04:06:04;;;;;;;;;;;-2.20;99.90;;;;;;5095110;28;19943;-83
2022/03/06 04:08:30;;;;;;;;;;;-2.30;99.90;;;;;;5095440;28;19926;-82
2022/03/06 04:10:59;;;;;;;;;;;-2.20;99.90;;;;;;5078566;28;19924;-82
2022/03/06 04:16:46;;;;;;;;;;;-2.10;99.90;;;;;;5120091;28;20307;-83
2022/03/06 04:19:12;;;;;;;;;;;-2.20;99.90;;;;;;5078798;28;19924;-82
2022/03/06 04:21:37;;;;;;;;;;;-2.00;99.90;;;;;;5078621;28;19973;-82
2022/03/06 04:24:03;;;;;;;;;;;-2.10;99.90;;;;;;5095410;28;20011;-82
2022/03/06 04:26:28;;;;;;;;;;;-1.00;99.90;;;;;;5077993;28;20384;-82
2022/03/06 04:28:54;;;;;;;;;;;-2.10;99.90;;;;;;5078443;28;19926;-82
2022/03/06 04:31:21;;;;;;;;;;;-2.20;99.90;;;;;;5078667;28;20373;-82
2022/03/06 04:33:46;;;;;;;;;;;-2.20;99.90;;;;;;5078608;28;19967;-82
2022/03/06 04:36:12;;;;;;;;;;;-2.20;99.90;;;;;;5078221;28;19967;-82
2022/03/06 04:38:38;;;;;;;;;;;-2.20;99.90;;;;;;5080755;28;19920;-82
2022/03/06 04:41:05;;;;;;;;;;;-2.20;99.90;;;;;;5049027;28;22173;-82
2022/03/06 04:43:30;;;;;;;;;;;-2.20;99.90;;;;;;5082004;28;19926;-82
2022/03/06 04:45:56;;;;;;;;;;;-2.30;99.90;;;;;;5098848;28;19920;-82
2022/03/06 04:48:21;;;;;;;;;;;-2.40;99.90;;;;;;5081454;28;20296;-82
2022/03/06 04:50:47;;;;;;;;;;;-2.30;99.90;;;;;;5098653;28;19924;-82
2022/03/06 04:53:12;;;;;;;;;;;-2.30;99.90;;;;;;5082122;28;20356;-82
2022/03/06 04:55:38;;;;;;;;;;;-2.40;99.90;;;;;;5098571;28;19920;-82
2022/03/06 04:58:03;;;;;;;;;;;-2.30;99.90;;;;;;5081397;28;20288;-82
2022/03/06 05:00:29;;;;;;;;;;;-2.40;99.90;;;;;;5098542;28;19926;-82
2022/03/06 05:02:55;;;;;;;;;;;-2.50;99.90;;;;;;5081934;28;20388;-83
2022/03/06 05:05:20;;;;;;;;;;;-2.50;99.90;;;;;;5081566;28;19920;-82
2022/03/06 05:07:46;;;;;;;;;;;-2.40;99.90;;;;;;5081418;28;19924;-82
2022/03/06 05:10:11;;;;;;;;;;;-2.40;99.90;;;;;;5081459;28;20135;-82
2022/03/06 05:12:38;;;;;;;;;;;-2.50;99.90;;;;;;5098506;28;19920;-82
2022/03/06 05:15:04;;;;;;;;;;;-2.50;99.90;;;;;;5081347;28;19924;-82
2022/03/06 05:17:29;;;;;;;;;;;-2.40;99.90;;;;;;5081265;28;19920;-82
2022/03/06 05:19:55;;;;;;;;;;;-2.40;99.90;;;;;;5098541;28;19923;-82
2022/03/06 05:22:20;;;;;;;;;;;-2.50;99.90;;;;;;5081533;28;19963;-82
2022/03/06 05:24:46;;;;;;;;;;;-2.40;99.90;;;;;;5098323;28;19920;-82
2022/03/06 05:27:11;;;;;;;;;;;-2.50;99.90;;;;;;5080823;28;19926;-82
2022/03/06 05:29:37;;;;;;;;;;;-2.40;99.90;;;;;;5097980;28;20631;-82
2022/03/06 05:32:02;;;;;;;;;;;-2.40;99.90;;;;;;5081388;28;19973;-82
2022/03/06 05:34:28;;;;;;;;;;;-2.50;99.90;;;;;;5098081;28;19926;-82
2022/03/06 05:36:54;;;;;;;;;;;-1.10;99.90;;;;;;5080861;28;19919;-82
2022/03/06 05:39:20;;;;;;;;;;;-2.50;99.90;;;;;;5080985;28;19920;-82
2022/03/06 05:41:45;;;;;;;;;;;-2.50;99.90;;;;;;5081355;28;19985;-82
2022/03/06 05:44:11;;;;;;;;;;;-2.40;99.90;;;;;;5081001;28;19919;-82
2022/03/06 05:46:36;;;;;;;;;;;-2.40;99.90;;;;;;5097296;28;19919;-82
2022/03/06 05:49:02;;;;;;;;;;;-2.50;99.90;;;;;;5080391;28;19923;-82
2022/03/06 05:51:27;;;;;;;;;;;-2.40;99.90;;;;;;5080832;28;20008;-82
2022/03/06 05:53:52;;;;;;;;;;;-1.20;99.90;;;;;;5080989;28;19920;-82
2022/03/06 05:56:18;;;;;;;;;;;-2.50;99.90;;;;;;5080460;28;19930;-82
2022/03/06 05:58:44;;;;;;;;;;;-2.40;99.90;;;;;;5080893;28;19959;-82
2022/03/06 06:01:09;;;;;;;;;;;-2.40;99.90;;;;;;5097413;28;19926;-82
2022/03/06 06:03:35;;;;;;;;;;;-2.40;99.90;;;;;;5097360;28;20364;-82
2022/03/06 06:06:00;;;;;;;;;;;-2.40;99.90;;;;;;5080623;28;19973;-83
2022/03/06 06:08:26;;;;;;;;;;;-2.40;99.90;;;;;;5080124;28;20022;-82
2022/03/06 06:10:51;;;;;;;;;;;-2.50;99.90;;;;;;5080243;28;19924;-82
2022/03/06 06:13:19;;;;;;;;;;;-1.20;99.90;;;;;;5097000;28;19968;-82
2022/03/06 06:15:44;;;;;;;;;;;-2.40;99.90;;;;;;5080218;28;19920;-82
2022/03/06 06:18:10;;;;;;;;;;;-2.20;99.90;;;;;;5079749;28;19920;-82
2022/03/06 06:20:36;;;;;;;;;;;-2.30;99.90;;;;;;5080264;28;19919;-82
2022/03/06 06:23:03;;;;;;;;;;;-2.20;99.90;;;;;;5080042;28;19927;-82
2022/03/06 06:25:28;;;;;;;;;;;-2.10;99.90;;;;;;5096886;28;19923;-82
2022/03/06 06:27:54;;;;;;;;;;;-2.00;99.90;;;;;;5079928;28;19919;-82
2022/03/06 06:30:19;;;;;;;;;;;-1.40;99.90;;;;;;5079725;28;19947;-82
2022/03/06 06:32:45;;;;;;;;;;;-1.80;99.90;;;;;;5096987;28;20369;-82
2022/03/06 06:35:10;;;;;;;;;;;-1.70;99.90;;;;;;5079661;28;19927;-83
2022/03/06 06:37:36;;;;;;;;;;;-1.70;99.90;;;;;;5079327;28;19973;-82
2022/03/06 06:40:01;;;;;;;;;;;-1.60;99.90;;;;;;5079618;28;19920;-82
2022/03/06 06:42:27;;;;;;;;;;;-1.70;99.90;;;;;;5079824;28;20418;-83
2022/03/06 06:44:52;;;;;;;;;;;-1.60;99.90;;;;;;5079925;28;20295;-83
2022/03/06 06:47:18;;;;;;;;;;;-1.40;99.90;;;;;;5079218;28;19928;-82
2022/03/06 06:49:43;;;;;;;;;;;-0.10;99.90;;;;;;5096710;28;19931;-82
2022/03/06 06:52:09;;;;;;;;;;;-1.10;99.90;;;;;;5096466;28;19920;-82
2022/03/06 06:54:34;;;;;;;;;;;-1.20;99.90;;;;;;5079779;28;20024;-82
2022/03/06 06:57:00;;;;;;;;;;;-1.20;99.90;;;;;;5079026;28;19920;-82
2022/03/06 06:59:25;;;;;;;;;;;-1.20;99.90;;;;;;5079389;28;20298;-82
2022/03/06 07:01:51;;;;;;;;;;;-1.20;99.90;;;;;;5096269;28;20008;-83
2022/03/06 07:04:17;;;;;;;;;;;-1.20;99.90;;;;;;5096146;28;20011;-82
2022/03/06 07:06:42;;;;;;;;;;;-1.10;99.90;;;;;;5079014;28;19988;-82
2022/03/06 07:09:08;;;;;;;;;;;-1.00;99.90;;;;;;5096150;28;19923;-82
2022/03/06 07:11:33;;;;;;;;;;;-0.90;99.90;;;;;;5079477;28;19924;-82
2022/03/06 07:13:59;;;;;;;;;;;-0.90;99.90;;;;;;5079163;28;19920;-82
2022/03/06 07:16:24;;;;;;;;;;;-0.90;99.90;;;;;;5079072;28;20296;-82
2022/03/06 07:18:50;;;;;;;;;;;-1.00;99.90;;;;;;5095999;28;19967;-82
2022/03/06 07:21:15;;;;;;;;;;;-0.80;99.90;;;;;;5079099;28;19926;-82
2022/03/06 07:23:41;;;;;;;;;;;-0.80;99.90;;;;;;5078997;28;20004;-82
2022/03/06 07:26:06;;;;;;;;;;;-0.70;99.90;;;;;;5095620;28;20002;-83
2022/03/06 07:28:32;;;;;;;;;;;-0.60;99.90;;;;;;5078969;28;20399;-82
2022/03/06 07:30:57;;;;;;;;;;;-0.50;99.90;;;;;;5078893;28;19931;-82
2022/03/06 07:33:23;;;;;;;;;;;-0.50;99.90;;;;;;5078998;28;19920;-82
2022/03/06 07:35:48;;;;;;;;;;;-0.10;99.90;;;;;;5078842;28;20327;-82
2022/03/06 07:38:14;;;;;;;;;;;-0.60;99.90;;;;;;5078322;28;19919;-82
2022/03/06 07:40:39;;;;;;;;;;;-0.50;99.90;;;;;;5078713;28;19926;-82
2022/03/06 07:43:05;;;;;;;;;;;-0.40;99.90;;;;;;5095791;28;19919;-82
2022/03/06 07:45:30;;;;;;;;;;;-0.40;99.90;;;;;;5078683;28;20388;-82
2022/03/06 07:47:56;;;;;;;;;;;-0.30;99.90;;;;;;5078435;28;20377;-82
2022/03/06 07:50:21;;;;;;;;;;;-0.20;99.90;;;;;;5078688;28;20014;-82
2022/03/06 07:52:47;;;;;;;;;;;-0.20;99.90;;;;;;5078862;28;19919;-82
2022/03/06 07:55:13;;;;;;;;;;;0.00;99.90;;;;;;5095587;28;19924;-83
2022/03/06 07:57:39;;;;;;;;;;;0.00;99.90;;;;;;5061545;28;19920;-83
2022/03/06 08:00:05;;;;;;;;;;;0.30;99.90;;;;;;5078684;28;20288;-83
2022/03/06 08:02:31;;;;;;;;;;;0.20;99.90;;;;;;5087296;28;19927;-82
2022/03/06 08:04:56;;;;;;;;;;;1.50;99.90;;;;;;5069294;28;19920;-83
2022/03/06 08:07:22;;;;;;;;;;;0.40;99.90;;;;;;5085566;28;19923;-82
2022/03/06 08:09:47;;;;;;;;;;;0.50;99.90;;;;;;5098972;28;19923;-82
2022/03/06 08:12:13;;;;;;;;;;;0.50;99.90;;;;;;5132835;27;19929;-82
2022/03/06 08:14:38;;;;;;;;;;;0.70;99.90;;;;;;5137157;27;19919;-82
2022/03/06 08:17:04;;;;;;;;;;;0.80;99.90;;;;;;5137070;27;20372;-83
2022/03/06 08:19:34;;;;;;;;;;;0.80;99.90;;;;;;5135779;27;19923;-82
2022/03/06 08:22:00;;;;;;;;;;;0.90;99.90;;;;;;5082489;28;19919;-82
2022/03/06 08:24:25;;;;;;;;;;;1.00;99.90;;;;;;5099447;28;19926;-82
2022/03/06 08:26:51;;;;;;;;;;;1.10;99.90;;;;;;5098871;28;19924;-82
2022/03/06 08:29:16;;;;;;;;;;;1.20;99.90;;;;;;5082171;28;19927;-82
2022/03/06 08:31:42;;;;;;;;;;;1.20;99.90;;;;;;5082212;28;19981;-82
2022/03/06 08:34:08;;;;;;;;;;;1.30;99.90;;;;;;5082096;28;20368;-83
2022/03/06 08:36:34;;;;;;;;;;;1.40;99.90;;;;;;5081813;28;19924;-82
2022/03/06 08:38:59;;;;;;;;;;;1.50;99.90;;;;;;5099032;28;20057;-83
2022/03/06 08:41:25;;;;;;;;;;;1.60;99.90;;;;;;5082288;28;19924;-82
2022/03/06 08:43:50;;;;;;;;;;;1.60;99.90;;;;;;5081982;28;19923;-82
2022/03/06 08:46:16;;;;;;;;;;;1.80;99.90;;;;;;5081790;28;20367;-82
2022/03/06 08:48:41;;;;;;;;;;;1.80;99.90;;;;;;5098828;28;19920;-82
2022/03/06 08:51:07;;;;;;;;;;;2.00;99.90;;;;;;5098737;28;19924;-82
2022/03/06 08:53:32;;;;;;;;;;;2.00;99.90;;;;;;5082093;28;19924;-82
2022/03/06 08:55:58;;;;;;;;;;;2.00;99.90;;;;;;5081783;28;19965;-82
2022/03/06 08:58:24;;;;;;;;;;;2.10;99.90;;;;;;5098281;28;19920;-83
2022/03/06 09:00:49;;;;;;;;;;;2.20;99.90;;;;;;5098684;28;20014;-82
2022/03/06 09:03:15;;;;;;;;;;;2.30;99.90;;;;;;5094446;28;19963;-82
2022/03/06 09:05:40;;;;;;;;;;;2.20;99.90;;;;;;5088026;27;19920;-82
2022/03/06 09:08:10;;;;;;;;;;;2.30;99.90;;;;;;5113185;27;20296;-83
2022/03/06 09:10:36;;;;;;;;;;;2.40;99.90;;;;;;5090092;27;19924;-83
2022/03/06 09:13:02;;;;;;;;;;;2.50;99.90;;;;;;5060469;28;19920;-82
2022/03/06 09:15:28;;;;;;;;;;;2.50;99.90;;;;;;5076013;28;20445;-82
2022/03/06 09:17:54;;;;;;;;;;;2.50;99.90;;;;;;5071138;27;19963;-82
2022/03/06 09:20:20;;;;;;;;;;;2.60;99.90;;;;;;5094654;28;19926;-82
2022/03/06 09:22:46;;;;;;;;;;;2.70;99.90;;;;;;5075983;28;20347;-82
2022/03/06 09:25:11;;;;;;;;;;;2.70;99.90;;;;;;5071926;27;19926;-82
2022/03/06 09:27:37;;;;;;;;;;;2.70;99.90;;;;;;5073960;28;19920;-83
2022/03/06 09:30:03;;;;;;;;;;;2.70;99.90;;;;;;5081452;27;19927;-82
2022/03/06 09:32:49;;;;;;;;;;;2.80;99.90;;;;;;5082848;28;19920;-83
2022/03/06 09:35:15;;;;;;;;;;;2.80;99.90;;;;;;5074922;28;19951;-83
2022/03/06 09:37:57;;;;;;;;;;;3.00;99.90;;;;;;5131985;27;20508;-83
2022/03/06 09:40:23;;;;;;;;;;;3.00;99.90;;;;;;5103873;27;19931;-83
2022/03/06 09:42:59;;;;;;;;;;;3.00;99.90;;;;;;5107913;27;19923;-82
2022/03/06 09:45:33;;;;;;;;;;;3.10;99.90;;;;;;5068590;28;20357;-83
2022/03/06 09:47:59;;;;;;;;;;;3.20;99.90;;;;;;5083840;28;19923;-82
2022/03/06 09:50:43;;;;;;;;;;;3.30;99.90;;;;;;5075490;28;19924;-83
2022/03/06 09:53:09;;;;;;;;;;;3.20;99.90;;;;;;5114025;27;19943;-83
2022/03/06 09:55:35;;;;;;;;;;;3.20;99.90;;;;;;5081567;28;20013;-82
2022/03/06 09:58:06;;;;;;;;;;;3.30;99.90;;;;;;5080966;28;20002;-83
2022/03/06 10:00:41;;;;;;;;;;;3.30;99.90;;;;;;5092320;27;19923;-82
2022/03/06 10:03:16;;;;;;;;;;;3.40;99.90;;;;;;5082699;27;19920;-82
2022/03/06 10:06:01;;;;;;;;;;;3.50;99.90;;;;;;5083859;28;19924;-83
2022/03/06 10:08:34;;;;;;;;;;;3.50;99.90;;;;;;5096613;27;19931;-83
2022/03/06 10:11:13;;;;;;;;;;;3.70;99.90;;;;;;5078894;28;19934;-82
2022/03/06 10:13:45;;;;;;;;;;;3.50;99.90;;;;;;5106121;28;20296;-83
2022/03/06 10:16:18;;;;;;;;;;;3.70;99.90;;;;;;5114409;27;19985;-83
2022/03/06 10:18:43;;;;;;;;;;;3.70;99.90;;;;;;5098552;27;19919;-83
2022/03/06 10:21:09;;;;;;;;;;;3.90;99.90;;;;;;5131028;27;20028;-83
2022/03/06 10:26:37;;;;;;;;;;;3.90;99.90;;;;;;5122757;27;20266;-82
2022/03/06 10:29:11;;;;;;;;;;;4.00;99.90;;;;;;5093105;27;19927;-83
2022/03/06 10:31:37;;;;;;;;;;;4.00;99.90;;;;;;5090112;28;19923;-82
2022/03/06 10:34:07;;;;;;;;;;;4.00;99.90;;;;;;5089153;27;20268;-83
2022/03/06 10:36:42;;;;;;;;;;;4.10;99.90;;;;;;5122413;27;19920;-83
2022/03/06 10:39:09;;;;;;;;;;;4.10;99.90;;;;;;5094986;27;19946;-83
2022/03/06 10:41:40;;;;;;;;;;;4.20;99.90;;;;;;5096048;28;19985;-82
2022/03/06 10:44:08;;;;;;;;;;;4.20;99.90;;;;;;5105384;27;19920;-82
2022/03/06 10:46:34;;;;;;;;;;;4.20;99.90;;;;;;5097701;28;19972;-83
2022/03/06 10:49:16;;;;;;;;;;;4.20;99.90;;;;;;5084432;28;19924;-83
2022/03/06 10:51:44;;;;;;;;;;;4.20;99.90;;;;;;5075562;28;19925;-82
2022/03/06 10:54:10;;;;;;;;;;;4.40;99.90;;;;;;5065838;28;19920;-82
2022/03/06 10:56:50;;;;;;;;;;;4.40;99.90;;;;;;5116877;27;20705;-83
2022/03/06 10:59:21;;;;;;;;;;;4.40;99.90;;;;;;5076448;28;20399;-83
2022/03/06 11:01:49;;;;;;;;;;;4.40;99.90;;;;;;5117283;27;19919;-82
2022/03/06 11:04:21;;;;;;;;;;;4.40;99.90;;;;;;5078675;28;19920;-82
2022/03/06 11:06:49;;;;;;;;;;;4.40;99.90;;;;;;5121167;27;19920;-83
2022/03/06 11:09:15;;;;;;;;;;;4.40;99.90;;;;;;5079059;27;19920;-82
2022/03/06 11:11:42;;;;;;;;;;;4.70;99.90;;;;;;5089281;28;19943;-83
2022/03/06 11:14:08;;;;;;;;;;;4.50;99.90;;;;;;5078828;28;19926;-82
2022/03/06 11:16:35;;;;;;;;;;;4.60;99.90;;;;;;5078159;28;19920;-83
2022/03/06 11:19:00;;;;;;;;;;;4.50;99.90;;;;;;5078677;28;19971;-83
2022/03/06 11:21:27;;;;;;;;;;;4.60;99.90;;;;;;5078078;28;20421;-83
2022/03/06 11:23:56;;;;;;;;;;;4.70;99.90;;;;;;5079803;28;19924;-82
2022/03/06 11:26:28;;;;;;;;;;;4.70;99.90;;;;;;5083921;27;20296;-82
2022/03/06 11:29:02;;;;;;;;;;;4.80;99.90;;;;;;5095356;27;19920;-83
2022/03/06 11:31:28;;;;;;;;;;;4.90;99.90;;;;;;5149992;27;19923;-82
2022/03/06 11:33:55;;;;;;;;;;;4.90;99.90;;;;;;5115592;28;20280;-83
2022/03/06 11:36:40;;;;;;;;;;;5.00;99.90;;;;;;5126436;27;19930;-84
2022/03/06 11:39:07;;;;;;;;;;;5.00;99.90;;;;;;5145170;27;19920;-82
2022/03/06 11:41:36;;;;;;;;;;;4.90;99.90;;;;;;5149655;27;19950;-84
2022/03/06 11:44:02;;;;;;;;;;;5.10;99.90;;;;;;5077837;28;19926;-83
2022/03/06 11:46:28;;;;;;;;;;;4.80;99.90;;;;;;5082446;28;19920;-83
2022/03/06 11:48:56;;;;;;;;;;;5.10;99.90;;;;;;5067201;28;20312;-83
2022/03/06 11:51:22;;;;;;;;;;;5.00;99.90;;;;;;5117500;28;20377;-83
2022/03/06 11:53:55;;;;;;;;;;;5.00;99.90;;;;;;5092439;28;19920;-83
2022/03/06 11:56:36;;;;;;;;;;;5.20;99.90;;;;;;5077365;28;20680;-83
2022/03/06 11:59:24;;;;;;;;;;;5.10;99.90;;;;;;5106110;28;19924;-84
2022/03/06 12:02:10;;;;;;;;;;;5.20;99.90;;;;;;5081945;28;19920;-83
2022/03/06 12:04:45;;;;;;;;;;;5.10;99.90;;;;;;5103445;28;19946;-84
2022/03/06 12:07:11;;;;;;;;;;;5.30;99.90;;;;;;5091406;28;20573;-83
2022/03/06 12:09:38;;;;;;;;;;;5.40;99.90;;;;;;5075246;28;19924;-84
2022/03/06 12:18:04;;;;;;;;;;;5.30;99.90;;;;;;5083355;28;19920;-83
2022/03/06 12:20:40;;;;;;;;;;;5.50;99.90;;;;;;5086550;28;19920;-83
2022/03/06 12:23:18;;;;;;;;;;;5.40;99.90;;;;;;5068410;28;19970;-84
2022/03/06 12:25:49;;;;;;;;;;;5.40;99.90;;;;;;5100971;28;19919;-83
2022/03/06 12:28:15;;;;;;;;;;;5.40;99.90;;;;;;5078634;28;19947;-84
2022/03/06 12:30:40;;;;;;;;;;;5.30;99.90;;;;;;5066124;28;19927;-83
2022/03/06 12:33:40;;;;;;;;;;;5.30;99.90;;;;;;5069097;28;20788;-83
2022/03/06 12:36:10;;;;;;;;;;;5.30;99.90;;;;;;5116945;28;19946;-83
2022/03/06 12:38:37;;;;;;;;;;;5.50;99.90;;;;;;5067939;28;19920;-83
2022/03/06 12:41:03;;;;;;;;;;;5.50;99.90;;;;;;5087985;28;19924;-83
2022/03/06 12:43:30;;;;;;;;;;;5.50;99.90;;;;;;5083198;28;19930;-83
2022/03/06 12:46:05;;;;;;;;;;;5.60;99.90;;;;;;5068301;28;19920;-84
2022/03/06 12:48:30;;;;;;;;;;;5.60;99.90;;;;;;5071688;28;19985;-83
2022/03/06 12:51:05;;;;;;;;;;;5.80;99.90;;;;;;5069410;28;20376;-84
2022/03/06 12:53:32;;;;;;;;;;;5.90;99.90;;;;;;5066911;28;19971;-83
2022/03/06 12:55:58;;;;;;;;;;;6.00;99.90;;;;;;5101715;28;20023;-84
2022/03/06 12:58:28;;;;;;;;;;;5.90;99.90;;;;;;5111620;28;19948;-84
2022/03/06 13:00:54;;;;;;;;;;;6.00;99.90;;;;;;5097781;28;19973;-83
2022/03/06 13:03:24;;;;;;;;;;;6.10;99.90;;;;;;5097685;28;19923;-83
2022/03/06 13:05:55;;;;;;;;;;;6.40;99.90;;;;;;5071991;28;20004;-84
2022/03/06 13:08:21;;;;;;;;;;;6.30;99.90;;;;;;5087989;28;20014;-83
2022/03/06 13:10:46;;;;;;;;;;;6.20;99.90;;;;;;5080843;28;20010;-84
2022/03/06 13:13:14;;;;;;;;;;;6.20;99.90;;;;;;5080362;28;20432;-84
2022/03/06 13:15:41;;;;;;;;;;;6.30;99.90;;;;;;5080449;28;20410;-84
2022/03/06 13:18:08;;;;;;;;;;;6.20;99.90;;;;;;5080714;28;20403;-83
2022/03/06 13:20:37;;;;;;;;;;;6.10;99.90;;;;;;5081035;28;19930;-84
2022/03/06 13:23:04;;;;;;;;;;;6.10;99.90;;;;;;5080810;28;19923;-83
2022/03/06 13:25:29;;;;;;;;;;;6.20;99.90;;;;;;5080784;28;20379;-83
2022/03/06 13:27:55;;;;;;;;;;;6.30;99.90;;;;;;5097359;28;19920;-83
2022/03/06 13:30:30;;;;;;;;;;;6.10;99.90;;;;;;5097409;28;19923;-83
2022/03/06 13:32:57;;;;;;;;;;;6.00;99.90;;;;;;5091015;28;19927;-84
2022/03/06 13:35:36;;;;;;;;;;;5.70;99.90;;;;;;5070474;27;19977;-84
2022/03/06 13:38:01;;;;;;;;;;;5.60;99.90;;;;;;5086732;28;19920;-84
2022/03/06 13:40:38;;;;;;;;;;;5.70;99.90;;;;;;5101539;27;20388;-84
2022/03/06 13:43:06;;;;;;;;;;;5.80;99.90;;;;;;5088317;28;20396;-84
2022/03/06 13:46:02;;;;;;;;;;;5.70;99.90;;;;;;5120465;27;19923;-84
2022/03/06 13:48:28;;;;;;;;;;;5.40;99.90;;;;;;5104994;27;19927;-84
2022/03/06 13:51:14;;;;;;;;;;;5.60;99.90;;;;;;5119481;27;20327;-84
2022/03/06 13:53:51;;;;;;;;;;;5.80;99.90;;;;;;5100038;28;19927;-84
2022/03/06 13:56:40;;;;;;;;;;;5.80;99.90;;;;;;5085034;28;19955;-83
2022/03/06 14:02:13;;;;;;;;;;;6.10;99.90;;;;;;5114214;27;19927;-84
2022/03/06 14:04:46;;;;;;;;;;;6.30;99.90;;;;;;5096783;28;20294;-84
2022/03/06 14:07:11;;;;;;;;;;;6.60;99.90;;;;;;5079279;28;19919;-84
2022/03/06 14:09:44;;;;;;;;;;;6.30;99.90;;;;;;5079809;28;19976;-84
2022/03/06 14:12:16;;;;;;;;;;;6.20;99.90;;;;;;5078890;28;20027;-84
2022/03/06 14:14:43;;;;;;;;;;;6.20;99.90;;;;;;5059224;28;19924;-84
2022/03/06 14:17:31;;;;;;;;;;;5.90;99.90;;;;;;5076032;28;20518;-84
2022/03/06 14:20:02;;;;;;;;;;;6.00;99.90;;;;;;5110017;28;19920;-84
2022/03/06 14:22:27;;;;;;;;;;;6.10;99.90;;;;;;5076206;28;20129;-84
2022/03/06 14:24:53;;;;;;;;;;;6.10;99.90;;;;;;5079269;28;20006;-84
2022/03/06 14:27:18;;;;;;;;;;;6.10;99.90;;;;;;5079317;28;19919;-84
2022/03/06 14:29:46;;;;;;;;;;;6.10;99.90;;;;;;5079067;28;19928;-83
2022/03/06 14:32:12;;;;;;;;;;;6.20;99.90;;;;;;5096150;28;19920;-84
2022/03/06 14:34:37;;;;;;;;;;;6.10;99.90;;;;;;5079101;28;20524;-84
2022/03/06 14:37:03;;;;;;;;;;;6.20;99.90;;;;;;5058601;28;19924;-84
2022/03/06 14:39:30;;;;;;;;;;;5.70;99.90;;;;;;5059051;28;19923;-84
2022/03/06 14:48:08;;;;;;;;;;;5.90;99.90;;;;;;5134942;27;19928;-84